sensor_id;sensor_type;location;lat;lon;timestamp;P1;durP1;ratioP1;P2;durP2;ratioP2
64060;SDS011;60147;55.036;73.242;2023-04-24T00:00:27;9.75;;;4.70;;
64060;SDS011;60147;55.036;73.242;2023-04-24T00:02:53;9.95;;;4.53;;
64060;SDS011;60147;55.036;73.242;2023-04-24T00:05:22;9.27;;;4.65;;
64060;SDS011;60147;55.036;73.242;2023-04-24T00:07:48;8.32;;;4.60;;
64060;SDS011;60147;55.036;73.242;2023-04-24T00:10:14;16.30;;;5.40;;
64060;SDS011;60147;55.036;73.242;2023-04-24T00:12:44;12.13;;;5.00;;
64060;SDS011;60147;55.036;73.242;2023-04-24T00:15:38;10.13;;;4.93;;
64060;SDS011;60147;55.036;73.242;2023-04-24T00:21:22;8.43;;;4.40;;
64060;SDS011;60147;55.036;73.242;2023-04-24T00:23:51;7.38;;;3.97;;
64060;SDS011;60147;55.036;73.242;2023-04-24T00:29:12;9.70;;;5.07;;
64060;SDS011;60147;55.036;73.242;2023-04-24T00:34:41;26.65;;;10.65;;
64060;SDS011;60147;55.036;73.242;2023-04-24T00:39:51;18.02;;;7.72;;
64060;SDS011;60147;55.036;73.242;2023-04-24T00:42:36;14.88;;;5.70;;
64060;SDS011;60147;55.036;73.242;2023-04-24T00:45:13;14.82;;;6.03;;
64060;SDS011;60147;55.036;73.242;2023-04-24T00:47:39;13.00;;;5.75;;
64060;SDS011;60147;55.036;73.242;2023-04-24T00:50:06;11.55;;;6.25;;
64060;SDS011;60147;55.036;73.242;2023-04-24T00:52:33;16.98;;;6.50;;
64060;SDS011;60147;55.036;73.242;2023-04-24T00:54:59;17.80;;;6.38;;
64060;SDS011;60147;55.036;73.242;2023-04-24T00:57:26;20.67;;;6.57;;
64060;SDS011;60147;55.036;73.242;2023-04-24T00:59:57;15.52;;;5.78;;
64060;SDS011;60147;55.036;73.242;2023-04-24T01:02:23;16.73;;;6.25;;
64060;SDS011;60147;55.036;73.242;2023-04-24T01:04:56;11.27;;;5.63;;
64060;SDS011;60147;55.036;73.242;2023-04-24T01:07:22;11.57;;;5.90;;
64060;SDS011;60147;55.036;73.242;2023-04-24T01:10:25;15.10;;;5.65;;
64060;SDS011;60147;55.036;73.242;2023-04-24T01:15:37;14.25;;;5.53;;
64060;SDS011;60147;55.036;73.242;2023-04-24T01:18:03;11.85;;;5.13;;
64060;SDS011;60147;55.036;73.242;2023-04-24T01:20:29;9.35;;;5.30;;
64060;SDS011;60147;55.036;73.242;2023-04-24T01:22:56;12.63;;;5.78;;
64060;SDS011;60147;55.036;73.242;2023-04-24T01:25:25;12.48;;;5.57;;
64060;SDS011;60147;55.036;73.242;2023-04-24T01:28:03;12.60;;;5.78;;
64060;SDS011;60147;55.036;73.242;2023-04-24T01:30:30;10.55;;;5.38;;
64060;SDS011;60147;55.036;73.242;2023-04-24T01:32:57;13.35;;;5.32;;
64060;SDS011;60147;55.036;73.242;2023-04-24T01:35:24;11.90;;;5.38;;
64060;SDS011;60147;55.036;73.242;2023-04-24T01:37:51;13.40;;;5.97;;
64060;SDS011;60147;55.036;73.242;2023-04-24T01:40:16;15.93;;;6.35;;
64060;SDS011;60147;55.036;73.242;2023-04-24T01:42:42;15.30;;;7.15;;
64060;SDS011;60147;55.036;73.242;2023-04-24T01:45:10;15.27;;;7.35;;
64060;SDS011;60147;55.036;73.242;2023-04-24T01:47:54;24.10;;;7.60;;
64060;SDS011;60147;55.036;73.242;2023-04-24T01:50:22;12.30;;;6.15;;
64060;SDS011;60147;55.036;73.242;2023-04-24T01:53:12;19.15;;;6.20;;
64060;SDS011;60147;55.036;73.242;2023-04-24T01:55:38;9.98;;;5.75;;
64060;SDS011;60147;55.036;73.242;2023-04-24T01:58:04;18.42;;;6.65;;
64060;SDS011;60147;55.036;73.242;2023-04-24T02:00:30;13.18;;;6.10;;
64060;SDS011;60147;55.036;73.242;2023-04-24T02:03:14;14.63;;;6.50;;
64060;SDS011;60147;55.036;73.242;2023-04-24T02:05:45;15.13;;;6.32;;
64060;SDS011;60147;55.036;73.242;2023-04-24T02:08:11;15.38;;;5.97;;
64060;SDS011;60147;55.036;73.242;2023-04-24T02:10:38;12.88;;;6.35;;
64060;SDS011;60147;55.036;73.242;2023-04-24T02:13:14;11.68;;;5.45;;
64060;SDS011;60147;55.036;73.242;2023-04-24T02:15:40;15.45;;;5.75;;
64060;SDS011;60147;55.036;73.242;2023-04-24T02:18:06;14.40;;;5.40;;
64060;SDS011;60147;55.036;73.242;2023-04-24T02:23:22;10.30;;;5.30;;
64060;SDS011;60147;55.036;73.242;2023-04-24T02:26:06;16.15;;;5.35;;
64060;SDS011;60147;55.036;73.242;2023-04-24T02:28:42;13.73;;;5.75;;
64060;SDS011;60147;55.036;73.242;2023-04-24T02:31:08;17.85;;;5.95;;
64060;SDS011;60147;55.036;73.242;2023-04-24T02:33:39;15.00;;;5.50;;
64060;SDS011;60147;55.036;73.242;2023-04-24T02:36:05;12.82;;;5.35;;
64060;SDS011;60147;55.036;73.242;2023-04-24T02:38:49;13.88;;;5.13;;
64060;SDS011;60147;55.036;73.242;2023-04-24T02:41:34;12.18;;;5.25;;
64060;SDS011;60147;55.036;73.242;2023-04-24T02:46:55;11.68;;;5.75;;
64060;SDS011;60147;55.036;73.242;2023-04-24T02:49:22;9.75;;;5.38;;
64060;SDS011;60147;55.036;73.242;2023-04-24T02:51:48;16.48;;;5.78;;
64060;SDS011;60147;55.036;73.242;2023-04-24T02:54:14;24.58;;;6.55;;
64060;SDS011;60147;55.036;73.242;2023-04-24T02:59:24;13.77;;;5.35;;
64060;SDS011;60147;55.036;73.242;2023-04-24T03:01:52;15.43;;;5.63;;
64060;SDS011;60147;55.036;73.242;2023-04-24T03:07:58;14.52;;;6.07;;
64060;SDS011;60147;55.036;73.242;2023-04-24T03:10:43;13.45;;;6.38;;
64060;SDS011;60147;55.036;73.242;2023-04-24T03:13:09;23.92;;;8.27;;
64060;SDS011;60147;55.036;73.242;2023-04-24T03:15:39;19.45;;;9.05;;
64060;SDS011;60147;55.036;73.242;2023-04-24T03:20:36;15.20;;;7.63;;
64060;SDS011;60147;55.036;73.242;2023-04-24T03:23:03;15.77;;;6.90;;
64060;SDS011;60147;55.036;73.242;2023-04-24T03:25:47;19.42;;;7.03;;
64060;SDS011;60147;55.036;73.242;2023-04-24T03:28:14;18.85;;;7.10;;
64060;SDS011;60147;55.036;73.242;2023-04-24T03:30:48;10.95;;;6.25;;
64060;SDS011;60147;55.036;73.242;2023-04-24T03:33:37;13.98;;;7.00;;
64060;SDS011;60147;55.036;73.242;2023-04-24T03:36:03;18.80;;;6.68;;
64060;SDS011;60147;55.036;73.242;2023-04-24T03:38:44;20.13;;;7.55;;
64060;SDS011;60147;55.036;73.242;2023-04-24T03:41:20;18.05;;;7.47;;
64060;SDS011;60147;55.036;73.242;2023-04-24T03:43:50;13.82;;;7.05;;
64060;SDS011;60147;55.036;73.242;2023-04-24T03:46:35;17.23;;;6.00;;
64060;SDS011;60147;55.036;73.242;2023-04-24T03:49:12;15.70;;;5.80;;
64060;SDS011;60147;55.036;73.242;2023-04-24T03:51:56;15.80;;;6.80;;
64060;SDS011;60147;55.036;73.242;2023-04-24T03:57:10;15.63;;;6.97;;
64060;SDS011;60147;55.036;73.242;2023-04-24T04:00:15;14.43;;;6.20;;
64060;SDS011;60147;55.036;73.242;2023-04-24T04:02:45;20.33;;;6.68;;
64060;SDS011;60147;55.036;73.242;2023-04-24T04:05:11;14.80;;;6.40;;
64060;SDS011;60147;55.036;73.242;2023-04-24T04:07:37;18.92;;;6.30;;
64060;SDS011;60147;55.036;73.242;2023-04-24T04:10:03;16.02;;;6.38;;
64060;SDS011;60147;55.036;73.242;2023-04-24T04:12:29;16.30;;;6.88;;
64060;SDS011;60147;55.036;73.242;2023-04-24T04:15:13;18.40;;;6.65;;
64060;SDS011;60147;55.036;73.242;2023-04-24T04:17:40;18.25;;;6.35;;
64060;SDS011;60147;55.036;73.242;2023-04-24T04:20:07;15.80;;;5.75;;
64060;SDS011;60147;55.036;73.242;2023-04-24T04:22:40;14.38;;;5.60;;
64060;SDS011;60147;55.036;73.242;2023-04-24T04:25:18;14.85;;;5.88;;
64060;SDS011;60147;55.036;73.242;2023-04-24T04:27:55;9.85;;;5.78;;
64060;SDS011;60147;55.036;73.242;2023-04-24T04:30:21;13.20;;;5.70;;
64060;SDS011;60147;55.036;73.242;2023-04-24T04:35:45;16.25;;;5.63;;
64060;SDS011;60147;55.036;73.242;2023-04-24T04:38:19;28.23;;;6.10;;
64060;SDS011;60147;55.036;73.242;2023-04-24T04:40:53;13.45;;;5.05;;
64060;SDS011;60147;55.036;73.242;2023-04-24T04:43:31;16.88;;;7.65;;
64060;SDS011;60147;55.036;73.242;2023-04-24T04:48:50;9.57;;;4.97;;
64060;SDS011;60147;55.036;73.242;2023-04-24T04:51:16;13.45;;;5.20;;
64060;SDS011;60147;55.036;73.242;2023-04-24T04:53:42;12.77;;;5.13;;
64060;SDS011;60147;55.036;73.242;2023-04-24T04:56:18;8.60;;;4.40;;
64060;SDS011;60147;55.036;73.242;2023-04-24T04:58:45;8.20;;;4.70;;
64060;SDS011;60147;55.036;73.242;2023-04-24T05:01:14;10.75;;;4.53;;
64060;SDS011;60147;55.036;73.242;2023-04-24T05:03:44;13.88;;;4.78;;
64060;SDS011;60147;55.036;73.242;2023-04-24T05:06:13;9.27;;;4.85;;
64060;SDS011;60147;55.036;73.242;2023-04-24T05:08:49;6.82;;;4.40;;
64060;SDS011;60147;55.036;73.242;2023-04-24T05:11:41;12.57;;;4.63;;
64060;SDS011;60147;55.036;73.242;2023-04-24T05:14:07;7.85;;;4.57;;
64060;SDS011;60147;55.036;73.242;2023-04-24T05:22:43;6.25;;;3.83;;
64060;SDS011;60147;55.036;73.242;2023-04-24T05:25:20;9.75;;;4.95;;
64060;SDS011;60147;55.036;73.242;2023-04-24T05:27:55;10.82;;;4.78;;
64060;SDS011;60147;55.036;73.242;2023-04-24T05:30:22;6.60;;;3.30;;
64060;SDS011;60147;55.036;73.242;2023-04-24T05:32:49;5.18;;;3.50;;
64060;SDS011;60147;55.036;73.242;2023-04-24T05:35:15;9.13;;;3.20;;
64060;SDS011;60147;55.036;73.242;2023-04-24T05:37:41;8.15;;;3.60;;
64060;SDS011;60147;55.036;73.242;2023-04-24T05:40:08;9.48;;;4.13;;
64060;SDS011;60147;55.036;73.242;2023-04-24T05:42:39;7.05;;;4.22;;
64060;SDS011;60147;55.036;73.242;2023-04-24T05:45:05;8.88;;;3.72;;
64060;SDS011;60147;55.036;73.242;2023-04-24T05:47:36;6.35;;;3.67;;
64060;SDS011;60147;55.036;73.242;2023-04-24T05:50:02;8.73;;;4.20;;
64060;SDS011;60147;55.036;73.242;2023-04-24T05:52:28;7.65;;;4.22;;
64060;SDS011;60147;55.036;73.242;2023-04-24T05:54:54;7.82;;;4.28;;
64060;SDS011;60147;55.036;73.242;2023-04-24T05:57:24;6.60;;;3.88;;
64060;SDS011;60147;55.036;73.242;2023-04-24T05:59:58;6.28;;;3.70;;
64060;SDS011;60147;55.036;73.242;2023-04-24T06:02:25;7.68;;;3.40;;
64060;SDS011;60147;55.036;73.242;2023-04-24T06:05:02;7.57;;;3.28;;
64060;SDS011;60147;55.036;73.242;2023-04-24T06:07:28;10.82;;;4.05;;
64060;SDS011;60147;55.036;73.242;2023-04-24T06:09:54;6.78;;;3.55;;
64060;SDS011;60147;55.036;73.242;2023-04-24T06:12:41;11.30;;;3.30;;
64060;SDS011;60147;55.036;73.242;2023-04-24T06:18:06;9.68;;;3.80;;
64060;SDS011;60147;55.036;73.242;2023-04-24T06:20:51;7.43;;;3.20;;
64060;SDS011;60147;55.036;73.242;2023-04-24T06:23:17;8.88;;;3.28;;
64060;SDS011;60147;55.036;73.242;2023-04-24T06:25:43;4.35;;;3.08;;
64060;SDS011;60147;55.036;73.242;2023-04-24T06:28:16;4.90;;;2.50;;
64060;SDS011;60147;55.036;73.242;2023-04-24T06:31:29;5.88;;;2.60;;
64060;SDS011;60147;55.036;73.242;2023-04-24T06:34:00;10.23;;;2.72;;
64060;SDS011;60147;55.036;73.242;2023-04-24T06:36:27;10.02;;;3.08;;
64060;SDS011;60147;55.036;73.242;2023-04-24T06:38:53;6.97;;;2.95;;
64060;SDS011;60147;55.036;73.242;2023-04-24T06:44:05;5.07;;;3.22;;
64060;SDS011;60147;55.036;73.242;2023-04-24T06:46:54;5.53;;;2.80;;
64060;SDS011;60147;55.036;73.242;2023-04-24T06:50:11;7.63;;;3.38;;
64060;SDS011;60147;55.036;73.242;2023-04-24T06:52:37;6.22;;;2.80;;
64060;SDS011;60147;55.036;73.242;2023-04-24T06:55:08;4.32;;;2.78;;
64060;SDS011;60147;55.036;73.242;2023-04-24T06:57:54;6.13;;;2.97;;
64060;SDS011;60147;55.036;73.242;2023-04-24T07:03:04;5.00;;;3.08;;
64060;SDS011;60147;55.036;73.242;2023-04-24T07:05:33;9.02;;;2.47;;
64060;SDS011;60147;55.036;73.242;2023-04-24T07:08:13;6.65;;;2.58;;
64060;SDS011;60147;55.036;73.242;2023-04-24T07:10:39;6.65;;;2.92;;
64060;SDS011;60147;55.036;73.242;2023-04-24T07:13:24;7.18;;;3.10;;
64060;SDS011;60147;55.036;73.242;2023-04-24T07:15:50;5.53;;;2.70;;
64060;SDS011;60147;55.036;73.242;2023-04-24T07:18:27;10.95;;;2.53;;
64060;SDS011;60147;55.036;73.242;2023-04-24T07:20:53;5.60;;;2.42;;
64060;SDS011;60147;55.036;73.242;2023-04-24T07:23:19;4.65;;;2.40;;
64060;SDS011;60147;55.036;73.242;2023-04-24T07:26:03;6.50;;;2.70;;
64060;SDS011;60147;55.036;73.242;2023-04-24T07:28:34;4.88;;;2.70;;
64060;SDS011;60147;55.036;73.242;2023-04-24T07:31:00;8.68;;;3.53;;
64060;SDS011;60147;55.036;73.242;2023-04-24T07:33:26;4.43;;;2.50;;
64060;SDS011;60147;55.036;73.242;2023-04-24T07:36:01;6.28;;;2.80;;
64060;SDS011;60147;55.036;73.242;2023-04-24T07:38:29;6.45;;;2.85;;
64060;SDS011;60147;55.036;73.242;2023-04-24T07:41:00;12.20;;;3.38;;
64060;SDS011;60147;55.036;73.242;2023-04-24T07:46:11;9.13;;;3.00;;
64060;SDS011;60147;55.036;73.242;2023-04-24T07:48:37;4.68;;;2.50;;
64060;SDS011;60147;55.036;73.242;2023-04-24T07:51:03;4.55;;;2.80;;
64060;SDS011;60147;55.036;73.242;2023-04-24T07:53:28;5.05;;;3.13;;
64060;SDS011;60147;55.036;73.242;2023-04-24T07:56:23;5.07;;;2.72;;
64060;SDS011;60147;55.036;73.242;2023-04-24T07:58:54;6.75;;;2.70;;
64060;SDS011;60147;55.036;73.242;2023-04-24T08:01:20;18.98;;;2.83;;
64060;SDS011;60147;55.036;73.242;2023-04-24T08:03:46;8.57;;;2.58;;
64060;SDS011;60147;55.036;73.242;2023-04-24T08:06:27;5.78;;;2.40;;
64060;SDS011;60147;55.036;73.242;2023-04-24T08:09:05;3.88;;;2.20;;
64060;SDS011;60147;55.036;73.242;2023-04-24T08:11:36;4.40;;;2.40;;
64060;SDS011;60147;55.036;73.242;2023-04-24T08:14:02;6.45;;;2.70;;
64060;SDS011;60147;55.036;73.242;2023-04-24T08:16:32;4.13;;;2.47;;
64060;SDS011;60147;55.036;73.242;2023-04-24T08:18:58;6.00;;;3.10;;
64060;SDS011;60147;55.036;73.242;2023-04-24T08:21:24;7.72;;;3.40;;
64060;SDS011;60147;55.036;73.242;2023-04-24T08:23:51;8.30;;;3.22;;
64060;SDS011;60147;55.036;73.242;2023-04-24T08:29:49;11.98;;;3.42;;
64060;SDS011;60147;55.036;73.242;2023-04-24T08:32:15;7.47;;;2.90;;
64060;SDS011;60147;55.036;73.242;2023-04-24T08:34:41;7.55;;;2.60;;
64060;SDS011;60147;55.036;73.242;2023-04-24T08:37:07;6.63;;;2.65;;
64060;SDS011;60147;55.036;73.242;2023-04-24T08:39:51;7.93;;;2.80;;
64060;SDS011;60147;55.036;73.242;2023-04-24T08:42:35;5.18;;;2.97;;
64060;SDS011;60147;55.036;73.242;2023-04-24T08:45:02;7.65;;;3.00;;
64060;SDS011;60147;55.036;73.242;2023-04-24T08:47:28;6.68;;;2.60;;
64060;SDS011;60147;55.036;73.242;2023-04-24T08:50:13;4.68;;;2.83;;
64060;SDS011;60147;55.036;73.242;2023-04-24T08:52:51;8.25;;;2.38;;
64060;SDS011;60147;55.036;73.242;2023-04-24T08:55:19;7.32;;;2.42;;
64060;SDS011;60147;55.036;73.242;2023-04-24T08:57:48;4.75;;;2.33;;
64060;SDS011;60147;55.036;73.242;2023-04-24T09:03:05;3.92;;;2.35;;
64060;SDS011;60147;55.036;73.242;2023-04-24T09:08:34;5.30;;;2.10;;
64060;SDS011;60147;55.036;73.242;2023-04-24T09:11:11;9.20;;;2.55;;
64060;SDS011;60147;55.036;73.242;2023-04-24T09:13:37;5.65;;;2.20;;
64060;SDS011;60147;55.036;73.242;2023-04-24T09:16:03;5.25;;;2.10;;
64060;SDS011;60147;55.036;73.242;2023-04-24T09:18:29;10.70;;;2.45;;
64060;SDS011;60147;55.036;73.242;2023-04-24T09:20:59;15.15;;;2.60;;
64060;SDS011;60147;55.036;73.242;2023-04-24T09:23:34;6.15;;;2.30;;
64060;SDS011;60147;55.036;73.242;2023-04-24T09:26:00;5.57;;;2.47;;
64060;SDS011;60147;55.036;73.242;2023-04-24T09:28:29;19.75;;;3.17;;
64060;SDS011;60147;55.036;73.242;2023-04-24T09:31:19;14.07;;;3.25;;
64060;SDS011;60147;55.036;73.242;2023-04-24T09:34:02;9.07;;;1.92;;
64060;SDS011;60147;55.036;73.242;2023-04-24T09:36:35;11.00;;;2.75;;
64060;SDS011;60147;55.036;73.242;2023-04-24T09:42:07;4.07;;;2.00;;
64060;SDS011;60147;55.036;73.242;2023-04-24T09:44:34;6.55;;;2.67;;
64060;SDS011;60147;55.036;73.242;2023-04-24T09:47:00;7.05;;;2.35;;
64060;SDS011;60147;55.036;73.242;2023-04-24T09:49:30;12.23;;;2.22;;
64060;SDS011;60147;55.036;73.242;2023-04-24T09:52:07;12.30;;;2.10;;
64060;SDS011;60147;55.036;73.242;2023-04-24T09:54:33;4.88;;;2.10;;
64060;SDS011;60147;55.036;73.242;2023-04-24T09:57:04;9.20;;;1.92;;
64060;SDS011;60147;55.036;73.242;2023-04-24T09:59:45;6.70;;;1.40;;
64060;SDS011;60147;55.036;73.242;2023-04-24T10:02:37;4.53;;;1.40;;
64060;SDS011;60147;55.036;73.242;2023-04-24T10:05:06;2.63;;;1.10;;
64060;SDS011;60147;55.036;73.242;2023-04-24T10:07:32;8.43;;;1.70;;
64060;SDS011;60147;55.036;73.242;2023-04-24T10:09:58;15.93;;;3.15;;
64060;SDS011;60147;55.036;73.242;2023-04-24T10:12:34;12.20;;;2.40;;
64060;SDS011;60147;55.036;73.242;2023-04-24T10:15:00;40.97;;;2.88;;
64060;SDS011;60147;55.036;73.242;2023-04-24T10:17:27;19.73;;;2.17;;
64060;SDS011;60147;55.036;73.242;2023-04-24T10:20:12;10.77;;;1.90;;
64060;SDS011;60147;55.036;73.242;2023-04-24T10:22:38;5.75;;;1.33;;
64060;SDS011;60147;55.036;73.242;2023-04-24T10:25:04;11.13;;;1.75;;
64060;SDS011;60147;55.036;73.242;2023-04-24T10:27:31;9.77;;;1.60;;
64060;SDS011;60147;55.036;73.242;2023-04-24T10:29:57;2.78;;;1.67;;
64060;SDS011;60147;55.036;73.242;2023-04-24T10:32:42;9.23;;;1.33;;
64060;SDS011;60147;55.036;73.242;2023-04-24T10:35:40;7.70;;;2.63;;
64060;SDS011;60147;55.036;73.242;2023-04-24T10:38:07;9.75;;;2.60;;
64060;SDS011;60147;55.036;73.242;2023-04-24T10:40:34;8.27;;;1.50;;
64060;SDS011;60147;55.036;73.242;2023-04-24T10:43:04;8.68;;;1.70;;
64060;SDS011;60147;55.036;73.242;2023-04-24T10:45:36;9.45;;;1.55;;
64060;SDS011;60147;55.036;73.242;2023-04-24T10:48:06;3.38;;;1.40;;
64060;SDS011;60147;55.036;73.242;2023-04-24T10:55:58;6.97;;;1.60;;
64060;SDS011;60147;55.036;73.242;2023-04-24T10:58:43;9.40;;;1.48;;
64060;SDS011;60147;55.036;73.242;2023-04-24T11:03:51;6.30;;;1.80;;
64060;SDS011;60147;55.036;73.242;2023-04-24T11:06:20;9.40;;;1.67;;
64060;SDS011;60147;55.036;73.242;2023-04-24T11:08:57;4.47;;;1.55;;
64060;SDS011;60147;55.036;73.242;2023-04-24T11:11:29;5.95;;;1.90;;
64060;SDS011;60147;55.036;73.242;2023-04-24T11:14:18;3.38;;;1.73;;
64060;SDS011;60147;55.036;73.242;2023-04-24T11:16:45;4.57;;;1.83;;
64060;SDS011;60147;55.036;73.242;2023-04-24T11:21:43;8.50;;;1.85;;
64060;SDS011;60147;55.036;73.242;2023-04-24T11:24:31;15.35;;;1.95;;
64060;SDS011;60147;55.036;73.242;2023-04-24T11:29:42;6.13;;;1.75;;
64060;SDS011;60147;55.036;73.242;2023-04-24T11:32:18;13.27;;;2.33;;
64060;SDS011;60147;55.036;73.242;2023-04-24T11:35:08;15.82;;;2.97;;
64060;SDS011;60147;55.036;73.242;2023-04-24T11:37:35;3.78;;;1.90;;
64060;SDS011;60147;55.036;73.242;2023-04-24T11:40:20;5.03;;;1.50;;
64060;SDS011;60147;55.036;73.242;2023-04-24T11:42:48;3.80;;;1.73;;
64060;SDS011;60147;55.036;73.242;2023-04-24T11:45:15;5.13;;;1.55;;
64060;SDS011;60147;55.036;73.242;2023-04-24T11:47:42;10.43;;;2.50;;
64060;SDS011;60147;55.036;73.242;2023-04-24T11:55:43;6.30;;;1.65;;
64060;SDS011;60147;55.036;73.242;2023-04-24T11:58:09;9.02;;;1.98;;
64060;SDS011;60147;55.036;73.242;2023-04-24T12:00:35;18.58;;;3.33;;
64060;SDS011;60147;55.036;73.242;2023-04-24T12:03:08;11.90;;;2.50;;
64060;SDS011;60147;55.036;73.242;2023-04-24T12:05:52;13.40;;;3.08;;
64060;SDS011;60147;55.036;73.242;2023-04-24T12:08:28;7.50;;;2.72;;
64060;SDS011;60147;55.036;73.242;2023-04-24T12:10:54;11.55;;;2.20;;
64060;SDS011;60147;55.036;73.242;2023-04-24T12:13:21;5.78;;;2.58;;
64060;SDS011;60147;55.036;73.242;2023-04-24T12:16:05;6.65;;;2.17;;
64060;SDS011;60147;55.036;73.242;2023-04-24T12:18:50;4.97;;;1.95;;
64060;SDS011;60147;55.036;73.242;2023-04-24T12:21:22;10.15;;;1.65;;
64060;SDS011;60147;55.036;73.242;2023-04-24T12:23:48;7.53;;;1.80;;
64060;SDS011;60147;55.036;73.242;2023-04-24T12:26:17;4.28;;;1.65;;
64060;SDS011;60147;55.036;73.242;2023-04-24T12:31:28;13.82;;;2.17;;
64060;SDS011;60147;55.036;73.242;2023-04-24T12:34:23;5.60;;;1.25;;
64060;SDS011;60147;55.036;73.242;2023-04-24T12:36:50;9.75;;;1.88;;
64060;SDS011;60147;55.036;73.242;2023-04-24T12:39:16;7.18;;;1.65;;
64060;SDS011;60147;55.036;73.242;2023-04-24T12:41:55;6.18;;;1.90;;
64060;SDS011;60147;55.036;73.242;2023-04-24T12:44:30;5.70;;;1.48;;
64060;SDS011;60147;55.036;73.242;2023-04-24T12:47:15;4.95;;;1.60;;
64060;SDS011;60147;55.036;73.242;2023-04-24T12:49:46;7.20;;;1.30;;
64060;SDS011;60147;55.036;73.242;2023-04-24T12:52:20;3.15;;;1.50;;
64060;SDS011;60147;55.036;73.242;2023-04-24T12:54:57;5.15;;;1.80;;
64060;SDS011;60147;55.036;73.242;2023-04-24T13:00:45;7.68;;;1.42;;
64060;SDS011;60147;55.036;73.242;2023-04-24T13:03:16;7.35;;;1.45;;
64060;SDS011;60147;55.036;73.242;2023-04-24T13:05:43;3.97;;;1.50;;
64060;SDS011;60147;55.036;73.242;2023-04-24T13:08:19;6.15;;;1.38;;
64060;SDS011;60147;55.036;73.242;2023-04-24T13:10:45;7.22;;;1.33;;
64060;SDS011;60147;55.036;73.242;2023-04-24T13:13:11;3.40;;;1.48;;
64060;SDS011;60147;55.036;73.242;2023-04-24T13:15:37;4.47;;;1.52;;
64060;SDS011;60147;55.036;73.242;2023-04-24T13:18:03;4.80;;;1.48;;
64060;SDS011;60147;55.036;73.242;2023-04-24T13:20:40;7.65;;;1.73;;
64060;SDS011;60147;55.036;73.242;2023-04-24T13:25:51;2.22;;;1.10;;
64060;SDS011;60147;55.036;73.242;2023-04-24T13:30:59;4.07;;;1.23;;
64060;SDS011;60147;55.036;73.242;2023-04-24T13:33:25;7.05;;;1.90;;
64060;SDS011;60147;55.036;73.242;2023-04-24T13:35:50;8.88;;;1.70;;
64060;SDS011;60147;55.036;73.242;2023-04-24T13:40:48;3.30;;;1.17;;
64060;SDS011;60147;55.036;73.242;2023-04-24T13:46:17;2.63;;;1.42;;
64060;SDS011;60147;55.036;73.242;2023-04-24T13:48:43;2.15;;;1.33;;
64060;SDS011;60147;55.036;73.242;2023-04-24T13:54:03;2.20;;;1.20;;
64060;SDS011;60147;55.036;73.242;2023-04-24T13:56:29;4.72;;;1.83;;
64060;SDS011;60147;55.036;73.242;2023-04-24T13:58:55;3.67;;;1.45;;
64060;SDS011;60147;55.036;73.242;2023-04-24T14:10:07;6.97;;;1.70;;
64060;SDS011;60147;55.036;73.242;2023-04-24T14:12:33;3.33;;;1.38;;
64060;SDS011;60147;55.036;73.242;2023-04-24T14:14:59;9.18;;;1.83;;
64060;SDS011;60147;55.036;73.242;2023-04-24T14:17:25;4.45;;;1.45;;
64060;SDS011;60147;55.036;73.242;2023-04-24T14:19:51;15.70;;;8.68;;
64060;SDS011;60147;55.036;73.242;2023-04-24T14:22:17;3.72;;;1.65;;
64060;SDS011;60147;55.036;73.242;2023-04-24T14:24:53;8.27;;;2.35;;
64060;SDS011;60147;55.036;73.242;2023-04-24T14:27:24;6.10;;;1.70;;
64060;SDS011;60147;55.036;73.242;2023-04-24T14:29:50;4.32;;;1.40;;
64060;SDS011;60147;55.036;73.242;2023-04-24T14:32:17;4.30;;;1.55;;
64060;SDS011;60147;55.036;73.242;2023-04-24T14:34:48;4.85;;;1.65;;
64060;SDS011;60147;55.036;73.242;2023-04-24T14:37:52;5.32;;;1.73;;
64060;SDS011;60147;55.036;73.242;2023-04-24T14:40:18;6.45;;;1.75;;
64060;SDS011;60147;55.036;73.242;2023-04-24T14:42:43;4.00;;;1.50;;
64060;SDS011;60147;55.036;73.242;2023-04-24T14:45:09;5.75;;;1.70;;
64060;SDS011;60147;55.036;73.242;2023-04-24T14:47:36;9.48;;;2.63;;
64060;SDS011;60147;55.036;73.242;2023-04-24T14:50:02;5.07;;;2.15;;
64060;SDS011;60147;55.036;73.242;2023-04-24T14:52:34;3.92;;;1.70;;
64060;SDS011;60147;55.036;73.242;2023-04-24T14:55:19;8.00;;;2.20;;
64060;SDS011;60147;55.036;73.242;2023-04-24T14:57:45;4.82;;;1.42;;
64060;SDS011;60147;55.036;73.242;2023-04-24T15:00:11;11.25;;;2.25;;
64060;SDS011;60147;55.036;73.242;2023-04-24T15:02:37;16.83;;;2.63;;
64060;SDS011;60147;55.036;73.242;2023-04-24T15:05:07;13.85;;;2.63;;
64060;SDS011;60147;55.036;73.242;2023-04-24T15:07:38;13.57;;;1.90;;
64060;SDS011;60147;55.036;73.242;2023-04-24T15:10:22;8.25;;;1.73;;
64060;SDS011;60147;55.036;73.242;2023-04-24T15:12:49;12.73;;;1.95;;
64060;SDS011;60147;55.036;73.242;2023-04-24T15:15:15;6.63;;;2.08;;
64060;SDS011;60147;55.036;73.242;2023-04-24T15:17:41;17.77;;;4.45;;
64060;SDS011;60147;55.036;73.242;2023-04-24T15:20:07;6.63;;;1.98;;
64060;SDS011;60147;55.036;73.242;2023-04-24T15:22:33;3.85;;;1.40;;
64060;SDS011;60147;55.036;73.242;2023-04-24T15:24:59;3.10;;;1.50;;
64060;SDS011;60147;55.036;73.242;2023-04-24T15:27:24;2.40;;;1.15;;
64060;SDS011;60147;55.036;73.242;2023-04-24T15:30:01;4.13;;;1.42;;
64060;SDS011;60147;55.036;73.242;2023-04-24T15:32:27;5.25;;;1.75;;
64060;SDS011;60147;55.036;73.242;2023-04-24T15:38:05;10.82;;;1.85;;
64060;SDS011;60147;55.036;73.242;2023-04-24T15:40:31;4.05;;;1.88;;
64060;SDS011;60147;55.036;73.242;2023-04-24T15:43:02;6.68;;;2.05;;
64060;SDS011;60147;55.036;73.242;2023-04-24T15:45:47;9.80;;;2.05;;
64060;SDS011;60147;55.036;73.242;2023-04-24T15:48:19;4.93;;;1.60;;
64060;SDS011;60147;55.036;73.242;2023-04-24T15:50:45;5.90;;;1.27;;
64060;SDS011;60147;55.036;73.242;2023-04-24T15:55:56;6.97;;;1.60;;
64060;SDS011;60147;55.036;73.242;2023-04-24T15:58:22;5.18;;;1.80;;
64060;SDS011;60147;55.036;73.242;2023-04-24T16:01:07;8.80;;;1.73;;
64060;SDS011;60147;55.036;73.242;2023-04-24T16:03:33;4.43;;;1.50;;
64060;SDS011;60147;55.036;73.242;2023-04-24T16:06:17;5.07;;;1.38;;
64060;SDS011;60147;55.036;73.242;2023-04-24T16:08:53;7.55;;;2.22;;
64060;SDS011;60147;55.036;73.242;2023-04-24T16:11:24;8.18;;;1.80;;
64060;SDS011;60147;55.036;73.242;2023-04-24T16:13:50;7.30;;;1.95;;
64060;SDS011;60147;55.036;73.242;2023-04-24T16:16:34;12.75;;;2.20;;
64060;SDS011;60147;55.036;73.242;2023-04-24T16:19:00;11.50;;;2.35;;
64060;SDS011;60147;55.036;73.242;2023-04-24T16:21:28;11.50;;;1.75;;
64060;SDS011;60147;55.036;73.242;2023-04-24T16:23:54;9.30;;;1.85;;
64060;SDS011;60147;55.036;73.242;2023-04-24T16:26:20;6.38;;;1.95;;
64060;SDS011;60147;55.036;73.242;2023-04-24T16:28:46;4.78;;;1.13;;
64060;SDS011;60147;55.036;73.242;2023-04-24T16:31:21;7.22;;;1.95;;
64060;SDS011;60147;55.036;73.242;2023-04-24T16:33:47;6.18;;;1.55;;
64060;SDS011;60147;55.036;73.242;2023-04-24T16:36:14;6.50;;;1.80;;
64060;SDS011;60147;55.036;73.242;2023-04-24T16:38:40;4.72;;;1.48;;
64060;SDS011;60147;55.036;73.242;2023-04-24T16:41:10;5.47;;;1.50;;
64060;SDS011;60147;55.036;73.242;2023-04-24T16:43:41;2.53;;;1.38;;
64060;SDS011;60147;55.036;73.242;2023-04-24T16:46:07;4.53;;;1.60;;
64060;SDS011;60147;55.036;73.242;2023-04-24T16:48:33;5.63;;;2.20;;
64060;SDS011;60147;55.036;73.242;2023-04-24T16:51:03;8.80;;;3.10;;
64060;SDS011;60147;55.036;73.242;2023-04-24T16:53:28;9.05;;;3.50;;